ADDS TAF Data INFO
IDs: Format: Raw Decoded Include METARs

Data at: 1214 UTC 18 Nov 2017

KALS 181152Z AUTO 03009KT 10SM CLR M06/M12 A3019 RMK AO2 WSHFT 1047 SLP227 60004 70004 T10561122 10017 21061 51047

KALS 181120Z 1812/1912 01012G22KT P6SM SKC
  FM181500 VRB05KT P6SM SKC